sensor_id;sensor_type;location;lat;lon;timestamp;temperature;humidity
12839;DHT22;6486;51.034;5.262;2024-01-16T00:01:15;18.30;35.50
12839;DHT22;6486;51.034;5.262;2024-01-16T00:03:41;18.30;35.40
12839;DHT22;6486;51.034;5.262;2024-01-16T00:06:07;18.30;35.50
12839;DHT22;6486;51.034;5.262;2024-01-16T00:08:33;18.30;35.40
12839;DHT22;6486;51.034;5.262;2024-01-16T00:10:58;18.30;35.40
12839;DHT22;6486;51.034;5.262;2024-01-16T00:13:24;18.30;35.40
12839;DHT22;6486;51.034;5.262;2024-01-16T00:15:50;18.30;35.40
12839;DHT22;6486;51.034;5.262;2024-01-16T00:18:15;18.30;35.40
12839;DHT22;6486;51.034;5.262;2024-01-16T00:20:41;18.30;35.40
12839;DHT22;6486;51.034;5.262;2024-01-16T00:23:07;18.30;35.40
12839;DHT22;6486;51.034;5.262;2024-01-16T00:25:33;18.30;35.40
12839;DHT22;6486;51.034;5.262;2024-01-16T00:27:58;18.30;35.40
12839;DHT22;6486;51.034;5.262;2024-01-16T00:30:24;18.30;35.40
12839;DHT22;6486;51.034;5.262;2024-01-16T00:32:50;18.30;35.40
12839;DHT22;6486;51.034;5.262;2024-01-16T00:35:15;18.30;35.40
12839;DHT22;6486;51.034;5.262;2024-01-16T00:37:41;18.30;35.40
12839;DHT22;6486;51.034;5.262;2024-01-16T00:40:07;18.30;35.40
12839;DHT22;6486;51.034;5.262;2024-01-16T00:42:34;18.30;35.40
12839;DHT22;6486;51.034;5.262;2024-01-16T00:45:00;18.30;35.40
12839;DHT22;6486;51.034;5.262;2024-01-16T00:47:26;18.30;35.40
12839;DHT22;6486;51.034;5.262;2024-01-16T00:49:52;18.30;35.40
12839;DHT22;6486;51.034;5.262;2024-01-16T00:52:18;18.30;35.50
12839;DHT22;6486;51.034;5.262;2024-01-16T00:54:45;18.30;35.40
12839;DHT22;6486;51.034;5.262;2024-01-16T00:57:10;18.20;35.40
12839;DHT22;6486;51.034;5.262;2024-01-16T00:59:36;18.20;35.40
12839;DHT22;6486;51.034;5.262;2024-01-16T01:02:02;18.20;35.40
12839;DHT22;6486;51.034;5.262;2024-01-16T01:04:29;18.20;35.40
12839;DHT22;6486;51.034;5.262;2024-01-16T01:06:55;18.20;35.40
12839;DHT22;6486;51.034;5.262;2024-01-16T01:09:21;18.20;35.40
12839;DHT22;6486;51.034;5.262;2024-01-16T01:11:46;18.20;35.40
12839;DHT22;6486;51.034;5.262;2024-01-16T01:14:12;18.20;35.40
12839;DHT22;6486;51.034;5.262;2024-01-16T01:16:38;18.20;35.40
12839;DHT22;6486;51.034;5.262;2024-01-16T01:19:03;18.20;35.40
12839;DHT22;6486;51.034;5.262;2024-01-16T01:21:29;18.20;35.40
12839;DHT22;6486;51.034;5.262;2024-01-16T01:23:55;18.20;35.50
12839;DHT22;6486;51.034;5.262;2024-01-16T01:26:20;18.20;35.50
12839;DHT22;6486;51.034;5.262;2024-01-16T01:28:46;18.10;35.30
12839;DHT22;6486;51.034;5.262;2024-01-16T01:31:12;18.10;35.40
12839;DHT22;6486;51.034;5.262;2024-01-16T01:33:38;18.10;35.50
12839;DHT22;6486;51.034;5.262;2024-01-16T01:36:04;18.10;35.40
12839;DHT22;6486;51.034;5.262;2024-01-16T01:38:30;18.10;35.40
12839;DHT22;6486;51.034;5.262;2024-01-16T01:40:56;18.10;35.40
12839;DHT22;6486;51.034;5.262;2024-01-16T01:43:25;18.10;35.40
12839;DHT22;6486;51.034;5.262;2024-01-16T01:46:17;18.10;35.40
12839;DHT22;6486;51.034;5.262;2024-01-16T01:48:45;18.00;35.40
12839;DHT22;6486;51.034;5.262;2024-01-16T01:51:14;18.00;35.40
12839;DHT22;6486;51.034;5.262;2024-01-16T01:53:43;18.00;35.40
12839;DHT22;6486;51.034;5.262;2024-01-16T01:56:13;18.00;35.40
12839;DHT22;6486;51.034;5.262;2024-01-16T01:58:43;18.00;35.40
12839;DHT22;6486;51.034;5.262;2024-01-16T02:01:09;18.00;35.40
12839;DHT22;6486;51.034;5.262;2024-01-16T02:03:40;18.00;35.40
12839;DHT22;6486;51.034;5.262;2024-01-16T02:06:07;18.00;35.40
12839;DHT22;6486;51.034;5.262;2024-01-16T02:08:33;18.00;35.40
12839;DHT22;6486;51.034;5.262;2024-01-16T02:10:58;18.00;35.40
12839;DHT22;6486;51.034;5.262;2024-01-16T02:13:24;18.00;35.40
12839;DHT22;6486;51.034;5.262;2024-01-16T02:15:50;17.90;35.30
12839;DHT22;6486;51.034;5.262;2024-01-16T02:18:17;17.90;35.40
12839;DHT22;6486;51.034;5.262;2024-01-16T02:20:43;17.90;35.40
12839;DHT22;6486;51.034;5.262;2024-01-16T02:23:10;17.90;35.40
12839;DHT22;6486;51.034;5.262;2024-01-16T02:25:38;17.90;35.40
12839;DHT22;6486;51.034;5.262;2024-01-16T02:28:04;17.90;35.40
12839;DHT22;6486;51.034;5.262;2024-01-16T02:30:29;17.90;35.40
12839;DHT22;6486;51.034;5.262;2024-01-16T02:32:56;17.90;35.40
12839;DHT22;6486;51.034;5.262;2024-01-16T02:35:21;17.90;35.40
12839;DHT22;6486;51.034;5.262;2024-01-16T02:37:47;17.90;35.40
12839;DHT22;6486;51.034;5.262;2024-01-16T02:40:12;17.90;35.40
12839;DHT22;6486;51.034;5.262;2024-01-16T02:42:38;17.90;35.40
12839;DHT22;6486;51.034;5.262;2024-01-16T02:45:07;17.90;35.40
12839;DHT22;6486;51.034;5.262;2024-01-16T02:47:33;17.90;35.40
12839;DHT22;6486;51.034;5.262;2024-01-16T02:49:59;17.80;35.40
12839;DHT22;6486;51.034;5.262;2024-01-16T02:52:25;17.80;35.40
12839;DHT22;6486;51.034;5.262;2024-01-16T02:54:51;17.80;35.40
12839;DHT22;6486;51.034;5.262;2024-01-16T02:57:17;17.90;35.50
12839;DHT22;6486;51.034;5.262;2024-01-16T02:59:45;17.80;35.40
12839;DHT22;6486;51.034;5.262;2024-01-16T03:02:11;17.80;35.40
12839;DHT22;6486;51.034;5.262;2024-01-16T03:04:37;17.80;35.40
12839;DHT22;6486;51.034;5.262;2024-01-16T03:07:03;17.80;35.40
12839;DHT22;6486;51.034;5.262;2024-01-16T03:09:29;17.80;35.40
12839;DHT22;6486;51.034;5.262;2024-01-16T03:11:55;17.80;35.40
12839;DHT22;6486;51.034;5.262;2024-01-16T03:14:21;17.80;35.40
12839;DHT22;6486;51.034;5.262;2024-01-16T03:16:47;17.80;35.50
12839;DHT22;6486;51.034;5.262;2024-01-16T03:19:12;17.80;35.50
12839;DHT22;6486;51.034;5.262;2024-01-16T03:21:38;17.80;35.50
12839;DHT22;6486;51.034;5.262;2024-01-16T03:24:07;17.80;35.40
12839;DHT22;6486;51.034;5.262;2024-01-16T03:26:33;17.80;35.40
12839;DHT22;6486;51.034;5.262;2024-01-16T03:28:59;17.80;35.50
12839;DHT22;6486;51.034;5.262;2024-01-16T03:31:25;17.80;35.50
12839;DHT22;6486;51.034;5.262;2024-01-16T03:33:50;17.70;35.40
12839;DHT22;6486;51.034;5.262;2024-01-16T03:36:16;17.70;35.30
12839;DHT22;6486;51.034;5.262;2024-01-16T03:38:43;17.70;35.30
12839;DHT22;6486;51.034;5.262;2024-01-16T03:41:10;17.70;35.30
12839;DHT22;6486;51.034;5.262;2024-01-16T03:43:36;17.70;35.40
12839;DHT22;6486;51.034;5.262;2024-01-16T03:46:03;17.70;35.40
12839;DHT22;6486;51.034;5.262;2024-01-16T03:48:28;17.70;35.40
12839;DHT22;6486;51.034;5.262;2024-01-16T03:50:55;17.70;35.40
12839;DHT22;6486;51.034;5.262;2024-01-16T03:53:21;17.70;35.40
12839;DHT22;6486;51.034;5.262;2024-01-16T03:55:48;17.70;35.40
12839;DHT22;6486;51.034;5.262;2024-01-16T03:58:15;17.70;35.40
12839;DHT22;6486;51.034;5.262;2024-01-16T04:00:41;17.70;35.40
12839;DHT22;6486;51.034;5.262;2024-01-16T04:03:06;17.70;35.40
12839;DHT22;6486;51.034;5.262;2024-01-16T04:05:33;17.70;35.40
12839;DHT22;6486;51.034;5.262;2024-01-16T04:07:58;17.70;35.40
12839;DHT22;6486;51.034;5.262;2024-01-16T04:10:24;17.60;35.30
12839;DHT22;6486;51.034;5.262;2024-01-16T04:12:50;17.60;35.30
12839;DHT22;6486;51.034;5.262;2024-01-16T04:15:15;17.60;35.30
12839;DHT22;6486;51.034;5.262;2024-01-16T04:17:41;17.60;35.30
12839;DHT22;6486;51.034;5.262;2024-01-16T04:20:07;17.60;35.90
12839;DHT22;6486;51.034;5.262;2024-01-16T04:22:33;17.60;35.30
12839;DHT22;6486;51.034;5.262;2024-01-16T04:24:59;17.60;35.30
12839;DHT22;6486;51.034;5.262;2024-01-16T04:27:24;17.60;35.30
12839;DHT22;6486;51.034;5.262;2024-01-16T04:29:51;17.60;35.30
12839;DHT22;6486;51.034;5.262;2024-01-16T04:32:17;17.60;35.30
12839;DHT22;6486;51.034;5.262;2024-01-16T04:34:42;17.60;35.30
12839;DHT22;6486;51.034;5.262;2024-01-16T04:37:08;17.60;35.30
12839;DHT22;6486;51.034;5.262;2024-01-16T04:39:34;17.60;35.30
12839;DHT22;6486;51.034;5.262;2024-01-16T04:41:59;17.60;35.30
12839;DHT22;6486;51.034;5.262;2024-01-16T04:44:25;17.60;35.20
12839;DHT22;6486;51.034;5.262;2024-01-16T04:46:51;17.60;35.30
12839;DHT22;6486;51.034;5.262;2024-01-16T04:49:16;17.50;35.20
12839;DHT22;6486;51.034;5.262;2024-01-16T04:51:43;17.50;35.20
12839;DHT22;6486;51.034;5.262;2024-01-16T04:54:10;17.50;35.10
12839;DHT22;6486;51.034;5.262;2024-01-16T04:56:36;17.50;35.20
12839;DHT22;6486;51.034;5.262;2024-01-16T04:59:02;17.50;35.10
12839;DHT22;6486;51.034;5.262;2024-01-16T05:01:27;17.50;35.20
12839;DHT22;6486;51.034;5.262;2024-01-16T05:03:53;17.50;35.20
12839;DHT22;6486;51.034;5.262;2024-01-16T05:06:20;17.50;35.10
12839;DHT22;6486;51.034;5.262;2024-01-16T05:08:45;17.50;35.80
12839;DHT22;6486;51.034;5.262;2024-01-16T05:11:11;17.50;35.20
12839;DHT22;6486;51.034;5.262;2024-01-16T05:13:37;17.50;35.10
12839;DHT22;6486;51.034;5.262;2024-01-16T05:16:02;17.50;35.10
12839;DHT22;6486;51.034;5.262;2024-01-16T05:18:28;17.50;35.10
12839;DHT22;6486;51.034;5.262;2024-01-16T05:20:54;17.50;35.10
12839;DHT22;6486;51.034;5.262;2024-01-16T05:23:21;17.50;35.10
12839;DHT22;6486;51.034;5.262;2024-01-16T05:25:47;17.50;35.10
12839;DHT22;6486;51.034;5.262;2024-01-16T05:28:13;17.40;35.10
12839;DHT22;6486;51.034;5.262;2024-01-16T05:30:39;17.50;35.10
12839;DHT22;6486;51.034;5.262;2024-01-16T05:33:04;17.40;35.10
12839;DHT22;6486;51.034;5.262;2024-01-16T05:35:30;17.40;35.10
12839;DHT22;6486;51.034;5.262;2024-01-16T05:37:56;17.40;35.10
12839;DHT22;6486;51.034;5.262;2024-01-16T05:40:22;17.40;35.10
12839;DHT22;6486;51.034;5.262;2024-01-16T05:42:50;17.40;35.10
12839;DHT22;6486;51.034;5.262;2024-01-16T05:45:16;17.40;35.10
12839;DHT22;6486;51.034;5.262;2024-01-16T05:47:42;17.40;35.10
12839;DHT22;6486;51.034;5.262;2024-01-16T05:50:08;17.40;35.10
12839;DHT22;6486;51.034;5.262;2024-01-16T05:52:34;17.40;35.10
12839;DHT22;6486;51.034;5.262;2024-01-16T05:55:00;17.40;35.10
12839;DHT22;6486;51.034;5.262;2024-01-16T05:57:26;17.40;35.10
12839;DHT22;6486;51.034;5.262;2024-01-16T05:59:52;17.40;35.10
12839;DHT22;6486;51.034;5.262;2024-01-16T06:02:18;17.40;35.10
12839;DHT22;6486;51.034;5.262;2024-01-16T06:04:43;17.40;35.10
12839;DHT22;6486;51.034;5.262;2024-01-16T06:07:09;17.40;35.00
12839;DHT22;6486;51.034;5.262;2024-01-16T06:09:38;17.40;35.10
12839;DHT22;6486;51.034;5.262;2024-01-16T06:12:06;17.40;35.70
12839;DHT22;6486;51.034;5.262;2024-01-16T06:14:32;17.40;35.10
12839;DHT22;6486;51.034;5.262;2024-01-16T06:16:59;17.30;34.90
12839;DHT22;6486;51.034;5.262;2024-01-16T06:19:24;17.30;34.90
12839;DHT22;6486;51.034;5.262;2024-01-16T06:21:50;17.30;35.00
12839;DHT22;6486;51.034;5.262;2024-01-16T06:24:16;17.30;35.00
12839;DHT22;6486;51.034;5.262;2024-01-16T06:26:41;17.30;34.90
12839;DHT22;6486;51.034;5.262;2024-01-16T06:29:08;17.30;34.90
12839;DHT22;6486;51.034;5.262;2024-01-16T06:31:34;17.30;34.90
12839;DHT22;6486;51.034;5.262;2024-01-16T06:34:00;17.30;34.90
12839;DHT22;6486;51.034;5.262;2024-01-16T06:36:25;17.30;34.90
12839;DHT22;6486;51.034;5.262;2024-01-16T06:38:52;17.30;34.90
12839;DHT22;6486;51.034;5.262;2024-01-16T06:41:18;17.30;34.90
12839;DHT22;6486;51.034;5.262;2024-01-16T06:43:43;17.30;34.90
12839;DHT22;6486;51.034;5.262;2024-01-16T06:46:09;17.30;34.90
12839;DHT22;6486;51.034;5.262;2024-01-16T06:48:36;17.30;34.90
12839;DHT22;6486;51.034;5.262;2024-01-16T06:51:02;17.30;35.00
12839;DHT22;6486;51.034;5.262;2024-01-16T06:53:28;17.30;34.80
12839;DHT22;6486;51.034;5.262;2024-01-16T06:55:54;17.30;34.80
12839;DHT22;6486;51.034;5.262;2024-01-16T06:58:19;17.30;34.80
12839;DHT22;6486;51.034;5.262;2024-01-16T07:00:46;17.20;34.80
12839;DHT22;6486;51.034;5.262;2024-01-16T07:03:12;17.20;34.80
12839;DHT22;6486;51.034;5.262;2024-01-16T07:05:39;17.30;34.80
12839;DHT22;6486;51.034;5.262;2024-01-16T07:08:06;17.20;34.80
12839;DHT22;6486;51.034;5.262;2024-01-16T07:10:32;17.20;34.80
12839;DHT22;6486;51.034;5.262;2024-01-16T07:12:59;17.20;34.80
12839;DHT22;6486;51.034;5.262;2024-01-16T07:15:25;17.20;34.80
12839;DHT22;6486;51.034;5.262;2024-01-16T07:17:51;17.20;34.80
12839;DHT22;6486;51.034;5.262;2024-01-16T07:20:16;17.20;34.80
12839;DHT22;6486;51.034;5.262;2024-01-16T07:22:42;17.20;34.80
12839;DHT22;6486;51.034;5.262;2024-01-16T07:25:08;17.20;34.80
12839;DHT22;6486;51.034;5.262;2024-01-16T07:27:34;17.20;34.70
12839;DHT22;6486;51.034;5.262;2024-01-16T07:30:00;17.20;34.70
12839;DHT22;6486;51.034;5.262;2024-01-16T07:32:26;17.20;34.80
12839;DHT22;6486;51.034;5.262;2024-01-16T07:34:52;17.20;34.70
12839;DHT22;6486;51.034;5.262;2024-01-16T07:37:18;17.20;34.70
12839;DHT22;6486;51.034;5.262;2024-01-16T07:39:44;17.20;34.70
12839;DHT22;6486;51.034;5.262;2024-01-16T07:42:10;17.20;34.70
12839;DHT22;6486;51.034;5.262;2024-01-16T07:44:36;17.20;34.70
12839;DHT22;6486;51.034;5.262;2024-01-16T07:47:02;17.20;34.70
12839;DHT22;6486;51.034;5.262;2024-01-16T07:49:27;17.10;34.60
12839;DHT22;6486;51.034;5.262;2024-01-16T07:51:53;17.20;34.70
12839;DHT22;6486;51.034;5.262;2024-01-16T07:54:19;17.10;34.60
12839;DHT22;6486;51.034;5.262;2024-01-16T07:56:44;17.10;34.60
12839;DHT22;6486;51.034;5.262;2024-01-16T07:59:10;17.10;34.60
12839;DHT22;6486;51.034;5.262;2024-01-16T08:01:36;17.10;34.60
12839;DHT22;6486;51.034;5.262;2024-01-16T08:04:03;17.10;34.60
12839;DHT22;6486;51.034;5.262;2024-01-16T08:06:29;17.10;34.60
12839;DHT22;6486;51.034;5.262;2024-01-16T08:08:55;17.10;34.60
12839;DHT22;6486;51.034;5.262;2024-01-16T08:11:20;17.10;34.60
12839;DHT22;6486;51.034;5.262;2024-01-16T08:13:46;17.10;34.60
12839;DHT22;6486;51.034;5.262;2024-01-16T08:16:12;17.10;34.60
12839;DHT22;6486;51.034;5.262;2024-01-16T08:18:37;17.10;34.60
12839;DHT22;6486;51.034;5.262;2024-01-16T08:21:03;17.10;34.60
12839;DHT22;6486;51.034;5.262;2024-01-16T08:23:29;17.10;34.50
12839;DHT22;6486;51.034;5.262;2024-01-16T08:25:55;17.10;34.60
12839;DHT22;6486;51.034;5.262;2024-01-16T08:28:20;17.10;34.50
12839;DHT22;6486;51.034;5.262;2024-01-16T08:30:49;17.10;34.60
12839;DHT22;6486;51.034;5.262;2024-01-16T08:33:15;17.10;34.60
12839;DHT22;6486;51.034;5.262;2024-01-16T08:35:40;17.10;34.60
12839;DHT22;6486;51.034;5.262;2024-01-16T08:38:06;17.10;34.60
12839;DHT22;6486;51.034;5.262;2024-01-16T08:40:32;17.10;34.60
12839;DHT22;6486;51.034;5.262;2024-01-16T08:42:57;17.10;34.60
12839;DHT22;6486;51.034;5.262;2024-01-16T08:45:23;17.10;34.50
12839;DHT22;6486;51.034;5.262;2024-01-16T08:47:51;17.10;34.50
12839;DHT22;6486;51.034;5.262;2024-01-16T08:50:17;17.00;34.50
12839;DHT22;6486;51.034;5.262;2024-01-16T08:52:42;17.00;34.40
12839;DHT22;6486;51.034;5.262;2024-01-16T08:55:09;17.10;34.50
12839;DHT22;6486;51.034;5.262;2024-01-16T08:57:36;17.10;34.50
12839;DHT22;6486;51.034;5.262;2024-01-16T09:00:04;17.10;34.50
12839;DHT22;6486;51.034;5.262;2024-01-16T09:02:30;17.10;34.50
12839;DHT22;6486;51.034;5.262;2024-01-16T09:04:56;17.10;34.50
12839;DHT22;6486;51.034;5.262;2024-01-16T09:07:24;17.10;34.40
12839;DHT22;6486;51.034;5.262;2024-01-16T09:09:49;17.20;34.50
12839;DHT22;6486;51.034;5.262;2024-01-16T09:12:15;17.20;34.50
12839;DHT22;6486;51.034;5.262;2024-01-16T09:14:41;17.20;34.40
12839;DHT22;6486;51.034;5.262;2024-01-16T09:17:07;17.20;34.40
12839;DHT22;6486;51.034;5.262;2024-01-16T09:19:33;17.20;34.40
12839;DHT22;6486;51.034;5.262;2024-01-16T09:21:59;17.30;34.40
12839;DHT22;6486;51.034;5.262;2024-01-16T09:24:25;17.30;35.10
12839;DHT22;6486;51.034;5.262;2024-01-16T09:26:51;17.30;34.30
12839;DHT22;6486;51.034;5.262;2024-01-16T09:29:17;17.30;34.30
12839;DHT22;6486;51.034;5.262;2024-01-16T09:31:42;17.30;34.30
12839;DHT22;6486;51.034;5.262;2024-01-16T09:34:08;17.30;34.10
12839;DHT22;6486;51.034;5.262;2024-01-16T09:36:34;17.40;34.40
12839;DHT22;6486;51.034;5.262;2024-01-16T09:39:04;17.40;34.30
12839;DHT22;6486;51.034;5.262;2024-01-16T09:41:36;17.40;34.30
12839;DHT22;6486;51.034;5.262;2024-01-16T09:44:02;17.40;34.30
12839;DHT22;6486;51.034;5.262;2024-01-16T09:46:28;17.40;34.30
12839;DHT22;6486;51.034;5.262;2024-01-16T09:48:56;17.40;34.30
12839;DHT22;6486;51.034;5.262;2024-01-16T09:51:22;17.50;34.40
12839;DHT22;6486;51.034;5.262;2024-01-16T09:53:48;17.50;34.30
12839;DHT22;6486;51.034;5.262;2024-01-16T09:56:15;17.50;34.30
12839;DHT22;6486;51.034;5.262;2024-01-16T09:58:43;17.50;34.30
12839;DHT22;6486;51.034;5.262;2024-01-16T10:01:11;17.50;34.30
12839;DHT22;6486;51.034;5.262;2024-01-16T10:03:38;17.50;34.20
12839;DHT22;6486;51.034;5.262;2024-01-16T10:06:05;17.50;34.20
12839;DHT22;6486;51.034;5.262;2024-01-16T10:08:31;17.50;34.20
12839;DHT22;6486;51.034;5.262;2024-01-16T10:10:58;17.60;34.30
12839;DHT22;6486;51.034;5.262;2024-01-16T10:13:25;17.60;34.30
12839;DHT22;6486;51.034;5.262;2024-01-16T10:15:52;17.60;34.20
12839;DHT22;6486;51.034;5.262;2024-01-16T10:18:25;17.60;34.20
12839;DHT22;6486;51.034;5.262;2024-01-16T10:20:51;17.60;34.20
12839;DHT22;6486;51.034;5.262;2024-01-16T10:23:31;17.60;34.20
12839;DHT22;6486;51.034;5.262;2024-01-16T10:28:42;17.70;34.20
12839;DHT22;6486;51.034;5.262;2024-01-16T10:31:12;17.70;34.10
12839;DHT22;6486;51.034;5.262;2024-01-16T10:33:40;17.70;34.10
12839;DHT22;6486;51.034;5.262;2024-01-16T10:38:39;17.70;34.10
12839;DHT22;6486;51.034;5.262;2024-01-16T10:41:09;17.70;34.10
12839;DHT22;6486;51.034;5.262;2024-01-16T10:43:36;17.70;34.10
12839;DHT22;6486;51.034;5.262;2024-01-16T10:46:16;17.70;34.00
12839;DHT22;6486;51.034;5.262;2024-01-16T10:48:44;17.70;34.00
12839;DHT22;6486;51.034;5.262;2024-01-16T10:51:11;17.70;34.00
12839;DHT22;6486;51.034;5.262;2024-01-16T10:53:42;17.70;34.00
12839;DHT22;6486;51.034;5.262;2024-01-16T10:56:17;17.70;33.90
12839;DHT22;6486;51.034;5.262;2024-01-16T10:58:43;17.70;33.90
12839;DHT22;6486;51.034;5.262;2024-01-16T11:01:15;17.70;33.90
12839;DHT22;6486;51.034;5.262;2024-01-16T11:06:11;17.70;33.90
12839;DHT22;6486;51.034;5.262;2024-01-16T11:08:39;17.70;33.90
12839;DHT22;6486;51.034;5.262;2024-01-16T11:11:06;17.70;33.90
12839;DHT22;6486;51.034;5.262;2024-01-16T11:13:34;17.70;33.90
12839;DHT22;6486;51.034;5.262;2024-01-16T11:16:03;17.70;33.90
12839;DHT22;6486;51.034;5.262;2024-01-16T11:18:31;17.70;33.80
12839;DHT22;6486;51.034;5.262;2024-01-16T11:20:58;17.70;33.90
12839;DHT22;6486;51.034;5.262;2024-01-16T11:23:24;17.70;34.40
12839;DHT22;6486;51.034;5.262;2024-01-16T11:25:50;17.70;33.80
12839;DHT22;6486;51.034;5.262;2024-01-16T11:28:16;17.70;33.80
12839;DHT22;6486;51.034;5.262;2024-01-16T11:30:42;17.70;33.80
12839;DHT22;6486;51.034;5.262;2024-01-16T11:35:59;17.80;33.90
12839;DHT22;6486;51.034;5.262;2024-01-16T11:38:26;17.80;33.80
12839;DHT22;6486;51.034;5.262;2024-01-16T11:40:54;17.80;33.80
12839;DHT22;6486;51.034;5.262;2024-01-16T11:46:05;17.80;33.80
12839;DHT22;6486;51.034;5.262;2024-01-16T11:48:31;17.70;33.70
12839;DHT22;6486;51.034;5.262;2024-01-16T11:50:57;17.70;33.70
12839;DHT22;6486;51.034;5.262;2024-01-16T11:53:38;17.70;33.70
12839;DHT22;6486;51.034;5.262;2024-01-16T12:01:51;17.70;33.70
12839;DHT22;6486;51.034;5.262;2024-01-16T12:04:18;17.70;33.70
12839;DHT22;6486;51.034;5.262;2024-01-16T12:06:59;17.70;33.70
12839;DHT22;6486;51.034;5.262;2024-01-16T12:09:28;17.70;33.70
12839;DHT22;6486;51.034;5.262;2024-01-16T12:12:02;17.70;33.80
12839;DHT22;6486;51.034;5.262;2024-01-16T12:14:28;17.70;33.70
12839;DHT22;6486;51.034;5.262;2024-01-16T12:17:14;17.70;33.70
12839;DHT22;6486;51.034;5.262;2024-01-16T12:19:41;17.70;33.70
12839;DHT22;6486;51.034;5.262;2024-01-16T12:22:13;17.70;33.70
12839;DHT22;6486;51.034;5.262;2024-01-16T12:24:39;17.70;33.70
12839;DHT22;6486;51.034;5.262;2024-01-16T12:27:05;17.70;33.70
12839;DHT22;6486;51.034;5.262;2024-01-16T12:29:32;17.70;33.70
12839;DHT22;6486;51.034;5.262;2024-01-16T12:32:11;17.70;33.70
12839;DHT22;6486;51.034;5.262;2024-01-16T12:34:45;17.70;33.70
12839;DHT22;6486;51.034;5.262;2024-01-16T12:37:11;17.70;34.30
12839;DHT22;6486;51.034;5.262;2024-01-16T12:39:38;17.70;33.70
12839;DHT22;6486;51.034;5.262;2024-01-16T12:42:04;17.70;33.70
12839;DHT22;6486;51.034;5.262;2024-01-16T12:44:30;17.70;33.70
12839;DHT22;6486;51.034;5.262;2024-01-16T12:46:57;17.70;33.70
12839;DHT22;6486;51.034;5.262;2024-01-16T12:49:23;17.70;33.70
12839;DHT22;6486;51.034;5.262;2024-01-16T12:51:50;17.70;33.70
12839;DHT22;6486;51.034;5.262;2024-01-16T12:54:17;17.60;33.70
12839;DHT22;6486;51.034;5.262;2024-01-16T12:56:44;17.60;33.70
12839;DHT22;6486;51.034;5.262;2024-01-16T12:59:14;17.60;33.70
12839;DHT22;6486;51.034;5.262;2024-01-16T13:01:44;17.60;33.70
12839;DHT22;6486;51.034;5.262;2024-01-16T13:04:12;17.60;33.70
12839;DHT22;6486;51.034;5.262;2024-01-16T13:06:38;17.60;33.70
12839;DHT22;6486;51.034;5.262;2024-01-16T13:09:09;17.60;33.70
12839;DHT22;6486;51.034;5.262;2024-01-16T13:11:55;17.60;33.70
12839;DHT22;6486;51.034;5.262;2024-01-16T13:14:22;17.60;33.70
12839;DHT22;6486;51.034;5.262;2024-01-16T13:16:52;17.60;33.70
12839;DHT22;6486;51.034;5.262;2024-01-16T13:19:18;17.60;33.70
12839;DHT22;6486;51.034;5.262;2024-01-16T13:21:45;17.60;33.70
12839;DHT22;6486;51.034;5.262;2024-01-16T13:24:11;17.60;33.70
12839;DHT22;6486;51.034;5.262;2024-01-16T13:26:37;17.60;33.70
12839;DHT22;6486;51.034;5.262;2024-01-16T13:29:03;17.60;33.70
12839;DHT22;6486;51.034;5.262;2024-01-16T13:31:29;17.60;33.70
12839;DHT22;6486;51.034;5.262;2024-01-16T13:33:55;17.60;33.70
12839;DHT22;6486;51.034;5.262;2024-01-16T13:36:22;17.60;33.70
12839;DHT22;6486;51.034;5.262;2024-01-16T13:38:48;17.60;33.70
12839;DHT22;6486;51.034;5.262;2024-01-16T13:41:14;17.60;33.70
12839;DHT22;6486;51.034;5.262;2024-01-16T13:43:40;17.60;33.70
12839;DHT22;6486;51.034;5.262;2024-01-16T13:46:06;17.60;33.80
12839;DHT22;6486;51.034;5.262;2024-01-16T13:48:34;17.60;33.70
12839;DHT22;6486;51.034;5.262;2024-01-16T13:50:59;17.60;33.80
12839;DHT22;6486;51.034;5.262;2024-01-16T13:53:25;17.50;33.70
12839;DHT22;6486;51.034;5.262;2024-01-16T13:55:51;17.50;33.70
12839;DHT22;6486;51.034;5.262;2024-01-16T13:58:17;17.60;33.80
12839;DHT22;6486;51.034;5.262;2024-01-16T14:00:44;17.50;33.70
12839;DHT22;6486;51.034;5.262;2024-01-16T14:03:10;17.60;33.80
12839;DHT22;6486;51.034;5.262;2024-01-16T14:05:35;17.50;33.60
12839;DHT22;6486;51.034;5.262;2024-01-16T14:08:01;17.50;33.70
12839;DHT22;6486;51.034;5.262;2024-01-16T14:10:27;17.50;33.70
12839;DHT22;6486;51.034;5.262;2024-01-16T14:12:53;17.50;33.60
12839;DHT22;6486;51.034;5.262;2024-01-16T14:15:20;17.50;33.60
12839;DHT22;6486;51.034;5.262;2024-01-16T14:17:50;17.50;33.60
12839;DHT22;6486;51.034;5.262;2024-01-16T14:20:17;17.50;33.60
12839;DHT22;6486;51.034;5.262;2024-01-16T14:22:43;17.50;33.60
12839;DHT22;6486;51.034;5.262;2024-01-16T14:25:11;17.60;33.70
12839;DHT22;6486;51.034;5.262;2024-01-16T14:27:38;17.60;33.60
12839;DHT22;6486;51.034;5.262;2024-01-16T14:30:09;17.60;33.60
12839;DHT22;6486;51.034;5.262;2024-01-16T14:32:37;17.60;33.60
12839;DHT22;6486;51.034;5.262;2024-01-16T14:35:06;17.60;33.60
12839;DHT22;6486;51.034;5.262;2024-01-16T14:37:34;17.60;33.60
12839;DHT22;6486;51.034;5.262;2024-01-16T14:40:00;17.60;33.50
12839;DHT22;6486;51.034;5.262;2024-01-16T14:42:27;17.70;33.60
12839;DHT22;6486;51.034;5.262;2024-01-16T14:44:53;17.70;33.60
12839;DHT22;6486;51.034;5.262;2024-01-16T14:47:19;17.70;33.60
12839;DHT22;6486;51.034;5.262;2024-01-16T14:49:45;17.60;33.60
12839;DHT22;6486;51.034;5.262;2024-01-16T14:52:11;17.70;33.60
12839;DHT22;6486;51.034;5.262;2024-01-16T14:54:38;17.70;33.60
12839;DHT22;6486;51.034;5.262;2024-01-16T14:57:03;17.70;33.60
12839;DHT22;6486;51.034;5.262;2024-01-16T14:59:32;17.70;33.60
12839;DHT22;6486;51.034;5.262;2024-01-16T15:01:58;17.80;33.70
12839;DHT22;6486;51.034;5.262;2024-01-16T15:04:24;17.80;33.70
12839;DHT22;6486;51.034;5.262;2024-01-16T15:06:49;17.80;33.70
12839;DHT22;6486;51.034;5.262;2024-01-16T15:09:18;17.80;33.70
12839;DHT22;6486;51.034;5.262;2024-01-16T15:11:43;17.80;33.70
12839;DHT22;6486;51.034;5.262;2024-01-16T15:14:11;17.80;33.70
12839;DHT22;6486;51.034;5.262;2024-01-16T15:16:37;17.80;33.70
12839;DHT22;6486;51.034;5.262;2024-01-16T15:19:02;17.80;33.70
12839;DHT22;6486;51.034;5.262;2024-01-16T15:21:28;17.80;33.70
12839;DHT22;6486;51.034;5.262;2024-01-16T15:23:53;17.80;33.70
12839;DHT22;6486;51.034;5.262;2024-01-16T15:26:19;17.80;33.70
12839;DHT22;6486;51.034;5.262;2024-01-16T15:28:46;17.80;33.60
12839;DHT22;6486;51.034;5.262;2024-01-16T15:31:11;17.80;33.60
12839;DHT22;6486;51.034;5.262;2024-01-16T15:33:39;17.80;34.30
12839;DHT22;6486;51.034;5.262;2024-01-16T15:36:05;17.80;33.60
12839;DHT22;6486;51.034;5.262;2024-01-16T15:38:31;17.80;33.60
12839;DHT22;6486;51.034;5.262;2024-01-16T15:40:57;17.80;33.60
12839;DHT22;6486;51.034;5.262;2024-01-16T15:43:23;17.80;33.60
12839;DHT22;6486;51.034;5.262;2024-01-16T15:45:48;17.80;33.50
12839;DHT22;6486;51.034;5.262;2024-01-16T15:48:14;17.80;33.50
12839;DHT22;6486;51.034;5.262;2024-01-16T15:50:40;17.90;33.60
12839;DHT22;6486;51.034;5.262;2024-01-16T15:53:06;17.90;33.60
12839;DHT22;6486;51.034;5.262;2024-01-16T15:55:31;17.90;33.70
12839;DHT22;6486;51.034;5.262;2024-01-16T15:57:57;17.90;33.60
12839;DHT22;6486;51.034;5.262;2024-01-16T16:00:24;17.90;33.60